Time;durP1;ratioP1;P1;durP2;ratioP2;P2;SDS_P1;SDS_P2;PMS_P1;PMS_P2;Temp;Humidity;BMP_temperature;BMP_pressure;BME280_temperature;BME280_humidity;BME280_pressure;Samples;Min_cycle;Max_cycle;Signal;HPM_P1;HPM_P2
2022/01/07 00:04:08;;;;;;;;;;;;;;;;;;;;;
2022/01/07 00:10:24;;;;;;;;;;;;;;;;;;;;;
2022/01/07 00:13:07;;;;;;;6.88;3.53;;;;;;;3.99;79.15;99767.81;4864529;29;20105;-79
2022/01/07 00:15:56;;;;;;;;;;;;;;;;;;;;;
2022/01/07 00:18:48;;;;;;;5.43;3.45;;;;;;;3.93;78.96;99751.50;4849979;29;20124;-79
2022/01/07 00:21:52;;;;;;;;;;;;;;;;;;;;;
2022/01/07 00:24:35;;;;;;;6.63;3.28;;;;;;;4.00;79.07;99735.13;4856294;29;20124;-80
2022/01/07 00:27:42;;;;;;;7.63;3.20;;;;;;;4.02;79.03;99732.38;4837448;29;20057;-78
2022/01/07 00:30:53;;;;;;;6.78;3.25;;;;;;;3.96;78.80;99727.50;4849834;29;20056;-78
2022/01/07 00:33:56;;;;;;;5.78;3.25;;;;;;;4.01;78.78;99736.81;4839174;29;20045;-79
2022/01/07 00:36:55;;;;;;;4.78;3.15;;;;;;;3.96;79.20;99727.50;4849706;29;20037;-78
2022/01/07 00:49:21;;;;;;;;;;;;;;;;;;;;;
2022/01/07 00:52:34;;;;;;;4.97;3.03;;;;;;;4.06;78.92;99705.59;4870037;29;20132;-80
2022/01/07 01:02:22;;;;;;;6.20;2.88;;;;;;;4.03;78.63;99697.03;4870161;29;20033;-79
2022/01/07 01:08:59;;;;;;;;;;;;;;;;;;;;;
2022/01/07 01:12:03;;;;;;;;;;;;;;;;;;;;;
2022/01/07 01:14:53;;;;;;;4.85;3.13;;;;;;;4.00;78.42;99684.00;4873172;29;20128;-79
2022/01/07 01:18:06;;;;;;;;;;;;;;;;;;;;;
2022/01/07 01:27:29;;;;;;;5.95;3.10;;;;;;;3.95;78.27;99676.38;4836013;29;20594;-79
2022/01/07 01:30:32;;;;;;;;;;;;;;;;;;;;;
2022/01/07 01:33:52;;;;;;;;;;;;;;;;;;;;;
2022/01/07 01:39:12;;;;;;;4.90;2.67;;;;;;;3.89;78.54;99660.06;4890613;23;20077;-80
2022/01/07 01:42:25;;;;;;;9.65;3.22;;;;;;;3.94;79.06;99672.03;4828872;29;20060;-80
2022/01/07 01:52:06;;;;;;;;;;;;;;;;;;;;;
2022/01/07 01:55:12;;;;;;;5.05;2.60;;;;;;;3.89;80.86;99660.94;4838700;29;20055;-79
2022/01/07 02:02:00;;;;;;;7.03;2.55;;;;;;;3.73;81.51;99652.28;4857960;29;20105;-79
2022/01/07 02:05:20;;;;;;;;;;;;;;;;;;;;;
2022/01/07 02:08:12;;;;;;;3.70;2.45;;;;;;;3.80;81.86;99632.47;4839305;29;20149;-79
2022/01/07 02:14:47;;;;;;;4.70;2.70;;;;;;;3.88;82.03;99610.78;4840819;29;20049;-80
2022/01/07 02:21:03;;;;;;;6.55;2.60;;;;;;;3.92;81.25;99585.81;4835301;29;20041;-79
2022/01/07 02:24:06;;;;;;;;;;;;;;;;;;;;;
2022/01/07 02:36:32;;;;;;;4.28;1.95;;;;;;;3.91;80.71;99545.28;4847798;29;20053;-78
2022/01/07 02:39:51;;;;;;;5.10;1.90;;;;;;;3.96;80.12;99537.88;4861214;29;20101;-78
2022/01/07 02:42:56;;;;;;;;;;;;;;;;;;;;;
2022/01/07 02:45:39;;;;;;;;;;;;;;;4.07;80.22;99508.03;4881391;29;20106;-78
2022/01/07 02:48:25;;;;;;;4.30;2.28;;;;;;;3.99;79.82;99505.09;4870265;29;19951;-78
2022/01/07 02:51:08;;;;;;;6.05;2.20;;;;;;;4.02;80.05;99504.88;4879787;29;20883;-79
2022/01/07 02:54:09;;;;;;;5.70;2.13;;;;;;;3.99;79.78;99495.34;4880382;29;20045;-78
2022/01/07 03:02:58;;;;;;;4.95;2.05;;;;;;;3.94;79.00;99486.88;4879485;29;20510;-79
2022/01/07 03:05:41;;;;;;;5.13;2.00;;;;;;;4.02;79.05;99479.25;4863103;29;20561;-79
2022/01/07 03:11:45;;;;;;;;;;;;;;;;;;;;;
2022/01/07 03:14:32;;;;;;;6.40;1.95;;;;;;;3.98;78.69;99475.13;4878408;29;20127;-79
2022/01/07 03:17:19;;;;;;;4.22;2.05;;;;;;;4.01;78.40;99474.91;4868133;29;20029;-78
2022/01/07 03:22:54;;;;;;;3.60;1.80;;;;;;;3.97;77.99;99462.03;4909198;23;20077;-79
2022/01/07 03:26:19;;;;;;;4.05;1.90;;;;;;;3.88;77.48;99449.44;4838437;29;20109;-79
2022/01/07 03:29:21;;;;;;;2.30;1.73;;;;;;;3.89;77.76;99449.34;4857315;29;20062;-79
2022/01/07 03:32:03;;;;;;;4.55;1.77;;;;;;;4.01;78.48;99451.13;4858672;29;20048;-78
2022/01/07 03:35:11;;;;;;;;;;;;;;;;;;;;;
2022/01/07 03:38:44;;;;;;;4.38;1.70;;;;;;;3.93;77.44;99442.88;4850496;29;20116;-79
2022/01/07 03:41:52;;;;;;;;;;;;;;;;;;;;;
2022/01/07 03:44:41;;;;;;;2.80;1.50;;;;;;;3.99;77.87;99442.44;4855631;29;20113;-79
2022/01/07 03:47:52;;;;;;;;;;;;;;;;;;;;;
2022/01/07 03:50:35;;;;;;;3.42;1.40;;;;;;;4.04;78.38;99439.47;4860829;29;20168;-79
2022/01/07 03:56:34;;;;;;;4.65;1.63;;;;;;;4.08;78.08;99440.94;4851194;29;20037;-80
2022/01/07 03:59:42;;;;;;;5.15;1.80;;;;;;;3.92;77.84;99435.06;4845183;29;20038;-79
2022/01/07 04:02:44;;;;;;;4.23;1.80;;;;;;;3.87;78.17;99458.34;4842041;29;20045;-80
2022/01/07 04:05:46;;;;;;;;;;;;;;;;;;;;;
2022/01/07 04:08:30;;;;;;;4.68;1.88;;;;;;;3.94;79.77;99446.38;4827093;29;20132;-79
2022/01/07 04:13:48;;;;;;;4.10;1.60;;;;;;;3.87;80.01;99430.09;4893882;23;20073;-80
2022/01/07 04:16:35;;;;;;;4.18;1.77;;;;;;;3.92;80.18;99450.94;4848612;29;20386;-79
2022/01/07 04:19:13;;;;;;;4.25;1.70;;;;;;;3.92;80.46;99440.34;4865022;29;20033;-80
2022/01/07 04:21:49;;;;;;;3.05;1.60;;;;;;;3.93;81.21;99442.03;4848128;29;20049;-78
2022/01/07 04:24:29;;;;;;;5.95;1.60;;;;;;;3.93;81.66;99447.31;4860954;29;20947;-79
2022/01/07 04:30:29;;;;;;;3.88;1.60;;;;;;;3.75;82.52;99452.09;4871289;29;20391;-79
2022/01/07 04:36:10;;;;;;;4.47;1.90;;;;;;;3.87;83.53;99451.25;4885136;29;20025;-79
2022/01/07 04:39:06;;;;;;;5.10;1.77;;;;;;;3.83;84.50;99457.72;4861107;29;20526;-79
2022/01/07 04:41:49;;;;;;;3.05;1.73;;;;;;;3.73;84.19;99440.78;4860467;29;20655;-79
2022/01/07 04:44:44;;;;;;;3.83;1.90;;;;;;;3.77;84.86;99443.09;4861081;29;20049;-80
2022/01/07 04:47:36;;;;;;;4.15;1.60;;;;;;;3.83;84.80;99441.00;4839428;29;20056;-79
2022/01/07 04:50:22;;;;;;;2.95;1.50;;;;;;;3.90;85.37;99435.16;4858684;29;20044;-78
2022/01/07 04:53:16;;;;;;;4.70;1.58;;;;;;;3.95;85.45;99442.78;4864189;29;20033;-79
2022/01/07 04:56:03;;;;;;;2.65;1.92;;;;;;;3.88;85.76;99436.22;4852203;29;20030;-79
2022/01/07 04:59:07;;;;;;;;;;;;;;;;;;;;;
2022/01/07 05:01:50;;;;;;;2.90;1.50;;;;;;;3.73;86.19;99444.25;4827295;29;20109;-79
2022/01/07 05:04:42;;;;;;;5.18;1.70;;;;;;;3.68;86.17;99453.47;4823053;29;20031;-80
2022/01/07 05:07:34;;;;;;;4.20;1.60;;;;;;;3.60;86.97;99450.53;4840572;29;20084;-79
2022/01/07 05:10:45;;;;;;;4.80;1.80;;;;;;;3.68;86.66;99449.03;4845189;29;20057;-79
2022/01/07 05:13:39;;;;;;;2.78;1.63;;;;;;;3.73;86.88;99440.78;4836791;29;20026;-79
2022/01/07 05:16:28;;;;;;;3.72;1.80;;;;;;;3.74;86.95;99438.03;4826196;29;20037;-79
2022/01/07 05:19:25;;;;;;;4.65;1.38;;;;;;;3.73;87.25;99436.34;4837335;29;20037;-79
2022/01/07 05:22:18;;;;;;;2.75;1.40;;;;;;;3.82;87.49;99440.16;4836287;29;20046;-79
2022/01/07 05:25:13;;;;;;;4.32;1.40;;;;;;;3.92;87.45;99429.75;4830193;29;20042;-79
2022/01/07 05:27:52;;;;;;;3.22;1.30;;;;;;;3.85;87.31;99421.44;4836895;29;20038;-79
2022/01/07 05:30:22;;;;;;;;;;;;;;;3.81;87.23;99427.88;4838546;29;20405;-79
2022/01/07 05:33:10;;;;;;;2.80;1.30;;;;;;;3.83;87.28;99433.91;4842001;29;19962;-79
2022/01/07 05:36:07;;;;;;;;;;;;;;;;;;;;;
2022/01/07 05:39:00;;;;;;;2.80;1.50;;;;;;;3.78;87.33;99441.28;4815194;29;20117;-80
2022/01/07 05:41:58;;;;;;;2.47;1.42;;;;;;;3.64;87.44;99426.41;4816675;29;20081;-80
2022/01/07 05:44:49;;;;;;;3.03;1.50;;;;;;;3.67;87.72;99435.91;4794297;29;20566;-79
2022/01/07 05:47:43;;;;;;;3.35;1.65;;;;;;;3.70;87.79;99425.13;4974247;24;20128;-79
2022/01/07 05:51:08;;;;;;;3.28;1.70;;;;;;;3.71;88.08;99426.81;4901828;29;20033;-78
2022/01/07 05:53:26;;;;;;;3.78;1.60;;;;;;;3.79;87.76;99428.00;4896777;29;20398;-79
2022/01/07 05:59:15;;;;;;;3.08;1.70;;;;;;;3.84;88.07;99424.19;4894264;29;20053;-80
2022/01/07 06:02:10;;;;;;;3.13;1.52;;;;;;;3.89;88.04;99427.34;4886902;29;20037;-79
2022/01/07 06:05:22;;;;;;;3.22;1.63;;;;;;;3.84;88.01;99430.31;4903713;29;20040;-79
2022/01/07 06:08:06;;;;;;;1.60;1.40;;;;;;;3.81;87.93;99425.25;4880326;29;20041;-79
2022/01/07 06:11:06;;;;;;;1.98;1.40;;;;;;;3.93;88.09;99432.31;4842682;29;20440;-79
2022/01/07 06:14:14;;;;;;;2.42;1.50;;;;;;;3.94;87.97;99422.56;4837921;29;21005;-79
2022/01/07 06:17:14;;;;;;;;;;;;;;;;;;;;;
2022/01/07 06:19:56;;;;;;;2.63;1.60;;;;;;;3.82;88.18;99403.13;4845256;29;20125;-78
2022/01/07 06:22:57;;;;;;;2.45;1.35;;;;;;;3.89;87.64;99406.19;4833045;29;20042;-79
2022/01/07 06:25:48;;;;;;;;;;;;;;;;;;;;;
2022/01/07 06:28:40;;;;;;;3.17;1.30;;;;;;;3.86;88.22;99417.81;4829815;29;20102;-79
2022/01/07 06:34:45;;;;;;;2.63;1.30;;;;;;;3.87;88.38;99430.09;4820390;29;20135;-80
2022/01/07 06:40:25;;;;;;;;;;;;;;;3.88;88.63;99431.78;4906364;23;20087;-79
2022/01/07 06:43:02;;;;;;;2.72;1.33;;;;;;;3.86;88.59;99420.47;4818965;29;20440;-78
2022/01/07 06:48:47;;;;;;;2.45;1.40;;;;;;;3.94;88.60;99412.84;4894906;29;20040;-80
2022/01/07 06:51:32;;;;;;;2.28;1.42;;;;;;;3.96;88.59;99424.16;4894400;29;20047;-79
2022/01/07 06:54:42;;;;;;;2.22;1.48;;;;;;;3.94;88.60;99417.28;4894787;29;20036;-79
2022/01/07 06:57:42;;;;;;;4.30;2.28;;;;;;;3.87;88.59;99422.16;4879715;29;20427;-79
2022/01/07 07:00:54;;;;;;;1.60;1.42;;;;;;;3.87;88.51;99422.16;4880255;29;20074;-79
2022/01/07 07:03:58;;;;;;;2.17;1.40;;;;;;;3.94;88.50;99426.06;4883013;29;21000;-79
2022/01/07 07:10:14;;;;;;;;;;;;;;;;;;;;;
2022/01/07 07:12:58;;;;;;;3.88;1.60;;;;;;;3.96;88.83;99420.66;4883469;29;20101;-79
2022/01/07 07:15:55;;;;;;;1.65;1.42;;;;;;;3.93;88.81;99427.00;4908431;29;20063;-78
2022/01/07 07:18:37;;;;;;;1.40;1.25;;;;;;;3.90;88.83;99410.53;4878747;29;20380;-80
2022/01/07 07:25:23;;;;;;;2.25;1.20;;;;;;;3.83;88.79;99425.97;4885896;29;20040;-79
2022/01/07 07:28:31;;;;;;;1.52;1.25;;;;;;;3.86;89.08;99424.91;5029886;24;20058;-80
2022/01/07 07:31:27;;;;;;;2.35;1.30;;;;;;;3.94;89.33;99422.56;4861409;29;20066;-79
2022/01/07 07:37:25;;;;;;;1.90;1.27;;;;;;;3.97;89.23;99425.84;4862284;29;20044;-79
2022/01/07 07:43:17;;;;;;;1.33;1.23;;;;;;;3.94;88.95;99423.41;4848690;29;20042;-79
2022/01/07 07:46:41;;;;;;;;;;;;;;;;;;;;;
2022/01/07 07:49:34;;;;;;;1.20;1.00;;;;;;;3.95;89.32;99419.81;4863489;29;20100;-79
2022/01/07 07:52:41;;;;;;;2.15;1.20;;;;;;;3.90;88.95;99418.44;4846043;29;20125;-79
2022/01/07 07:55:35;;;;;;;1.33;1.10;;;;;;;3.93;89.05;99411.16;4836208;29;20049;-79
2022/01/07 07:58:42;;;;;;;;;;;;;;;;;;;;;
2022/01/07 08:01:25;;;;;;;1.97;1.07;;;;;;;3.94;89.14;99422.56;4846235;29;20120;-79
2022/01/07 08:11:12;;;;;;;1.20;1.00;;;;;;;3.99;88.96;99421.28;4777964;29;20051;-79
2022/01/07 08:17:34;;;;;;;1.27;1.10;;;;;;;3.82;88.71;99418.16;4791283;29;20121;-78
2022/01/07 08:20:27;;;;;;;;;;;;;;;;;;;;;
2022/01/07 08:23:19;;;;;;;0.80;0.80;;;;;;;3.92;88.58;99412.09;4875821;24;20149;-79
2022/01/07 08:26:10;;;;;;;2.45;1.00;;;;;;;3.96;88.76;99425.94;4824038;29;20775;-79
2022/01/07 08:35:53;;;;;;;;;;;;;;;;;;;;;
2022/01/07 08:38:48;;;;;;;2.50;1.08;;;;;;;4.01;88.31;99408.78;4836489;29;20200;-79
2022/01/07 08:41:57;;;;;;;1.67;1.40;;;;;;;4.00;88.79;99417.69;4834325;29;20069;-79
2022/01/07 08:48:00;;;;;;;1.50;1.02;;;;;;;3.96;88.32;99410.91;4806605;29;20133;-79
2022/01/07 08:51:12;;;;;;;1.17;1.00;;;;;;;3.94;88.57;99415.47;4818591;29;20584;-79
2022/01/07 08:54:04;;;;;;;2.47;1.35;;;;;;;3.98;88.61;99406.38;4834592;29;20077;-79
2022/01/07 09:03:41;;;;;;;1.27;0.90;;;;;;;4.08;88.76;99417.13;4822219;29;20030;-79
2022/01/07 09:06:45;;;;;;;0.90;0.90;;;;;;;4.07;88.48;99413.63;4830845;29;20103;-79
2022/01/07 09:09:41;;;;;;;2.05;0.93;;;;;;;4.13;88.42;99411.50;4821850;29;20050;-79
2022/01/07 09:15:15;;;;;;;1.63;0.98;;;;;;;4.13;88.79;99422.94;4923199;24;20072;-80
2022/01/07 09:18:24;;;;;;;;;;;;;;;;;;;;;
2022/01/07 09:21:08;;;;;;;1.10;1.00;;;;;;;4.11;88.55;99411.63;4883856;29;20120;-79
2022/01/07 09:24:14;;;;;;;0.93;0.80;;;;;;;4.14;88.73;99411.41;4848039;29;20107;-79
2022/01/07 09:27:15;;;;;;;1.50;0.85;;;;;;;4.18;88.75;99404.91;4898182;29;20049;-79
2022/01/07 09:30:11;;;;;;;1.35;0.95;;;;;;;4.20;88.66;99387.13;4895291;29;20370;-79
2022/01/07 09:33:12;;;;;;;1.15;1.05;;;;;;;4.21;88.63;99390.63;4899841;29;20051;-79
2022/01/07 09:35:51;;;;;;;1.15;0.98;;;;;;;4.17;88.60;99392.66;4888008;29;20721;-79
2022/01/07 09:38:52;;;;;;;1.35;0.88;;;;;;;4.18;88.88;99390.84;4886172;29;20029;-78
2022/01/07 09:41:54;;;;;;;1.25;1.00;;;;;;;4.29;88.86;99397.06;4891410;29;20046;-79
2022/01/07 09:48:03;;;;;;;1.80;1.20;;;;;;;4.31;88.89;99403.09;4897689;29;20624;-79
2022/01/07 09:50:46;;;;;;;1.77;1.15;;;;;;;4.32;89.09;99406.59;4893217;29;20040;-79
2022/01/07 09:53:31;;;;;;;2.15;1.30;;;;;;;4.32;88.91;99414.53;4887654;29;20035;-80
2022/01/07 09:56:19;;;;;;;;;;;;;;;;;;;;;
2022/01/07 09:59:07;;;;;;;;;;;;;;;;;;;;;
2022/01/07 10:05:17;;;;;;;1.70;1.23;;;;;;;4.48;88.59;99401.84;4916044;23;20296;-78
2022/01/07 10:08:36;;;;;;;2.17;1.02;;;;;;;4.47;88.95;99405.47;4904312;29;20044;-79
2022/01/07 10:11:29;;;;;;;1.00;0.90;;;;;;;4.46;88.96;99398.47;4886053;29;20104;-79
2022/01/07 10:14:40;;;;;;;1.60;0.98;;;;;;;4.52;88.49;99395.38;4896332;29;20040;-79
2022/01/07 10:17:20;;;;;;;2.05;1.10;;;;;;;4.49;88.74;99397.41;4900870;29;20496;-79
2022/01/07 10:20:09;;;;;;;1.45;1.20;;;;;;;4.52;88.72;99397.19;4905704;29;20040;-80
2022/01/07 10:23:23;;;;;;;2.20;1.27;;;;;;;4.51;88.58;99400.78;4901999;29;20040;-79
2022/01/07 10:26:33;;;;;;;1.30;1.20;;;;;;;4.54;88.32;99387.31;4898389;29;20057;-79
2022/01/07 10:29:20;;;;;;;1.95;1.25;;;;;;;4.53;88.25;99380.34;4887432;29;20040;-79
2022/01/07 10:32:12;;;;;;;1.90;1.20;;;;;;;4.56;88.94;99372.16;4897876;29;20036;-79
2022/01/07 10:35:17;;;;;;;2.63;1.40;;;;;;;4.54;88.58;99366.97;4892044;29;20032;-79
2022/01/07 10:41:13;;;;;;;2.70;1.40;;;;;;;4.53;88.70;99362.66;4901363;29;20069;-78
2022/01/07 10:44:41;;;;;;;;;;;;;;;;;;;;;
2022/01/07 10:50:54;;;;;;;2.30;1.67;;;;;;;4.65;88.94;99358.22;4878314;29;20534;-78
2022/01/07 10:54:01;;;;;;;;;;;;;;;;;;;;;
2022/01/07 10:56:50;;;;;;;3.13;1.60;;;;;;;4.77;89.47;99352.03;4872408;29;20124;-78
2022/01/07 11:02:22;;;;;;;2.83;1.70;;;;;;;4.71;88.83;99347.16;4926182;23;20065;-79
2022/01/07 11:05:27;;;;;;;3.08;1.70;;;;;;;4.74;88.97;99342.50;4877073;29;20077;-79
2022/01/07 11:08:16;;;;;;;2.15;1.58;;;;;;;4.76;89.15;99346.84;4864774;29;20041;-79
2022/01/07 11:11:01;;;;;;;2.42;2.00;;;;;;;4.77;89.73;99364.44;4884423;29;20128;-78
2022/01/07 11:13:45;;;;;;;2.60;1.65;;;;;;;4.76;89.53;99349.50;4871134;29;20517;-79
2022/01/07 11:16:40;;;;;;;4.53;2.20;;;;;;;4.71;89.32;99353.31;4864711;29;20063;-79
2022/01/07 11:19:32;;;;;;;3.60;2.05;;;;;;;4.76;89.43;99341.56;4850023;29;20037;-79
2022/01/07 11:22:30;;;;;;;5.18;2.28;;;;;;;4.76;89.69;99338.91;4879953;29;20029;-79
2022/01/07 11:28:44;;;;;;;5.88;2.53;;;;;;;4.72;89.21;99330.31;4882272;29;20045;-79
2022/01/07 11:31:41;;;;;;;4.22;2.13;;;;;;;4.74;89.36;99323.13;4861389;29;20113;-79
2022/01/07 11:34:49;;;;;;;3.75;2.28;;;;;;;4.74;89.87;99323.13;4859044;29;20047;-79
2022/01/07 11:37:42;;;;;;;4.95;2.20;;;;;;;4.78;89.83;99323.75;4870705;29;20424;-79
2022/01/07 11:40:29;;;;;;;4.30;2.40;;;;;;;4.83;90.04;99337.47;4851647;29;20041;-80
2022/01/07 11:43:00;;;;;;;5.00;2.30;;;;;;;4.85;89.79;99330.25;4878094;29;20033;-78
2022/01/07 11:45:46;;;;;;;3.20;1.95;;;;;;;4.92;90.25;99326.16;4848700;29;20672;-79
2022/01/07 11:48:54;;;;;;;;;;;;;;;;;;;;;
2022/01/07 11:51:59;;;;;;;7.07;2.40;;;;;;;4.79;89.62;99342.16;4848929;29;20109;-79
2022/01/07 11:57:50;;;;;;;8.18;2.75;;;;;;;4.80;89.79;99337.72;4793567;23;20049;-79
2022/01/07 12:00:56;;;;;;;4.50;2.50;;;;;;;4.76;89.29;99352.16;4868093;29;20114;-78
2022/01/07 12:03:53;;;;;;;;;;;;;;;;;;;;;
2022/01/07 12:06:48;;;;;;;4.83;2.37;;;;;;;4.78;89.54;99327.22;4864389;29;20127;-78
2022/01/07 12:09:42;;;;;;;4.10;2.58;;;;;;;4.80;89.89;99329.75;4883769;29;20309;-78
2022/01/07 12:12:21;;;;;;;5.15;2.67;;;;;;;4.77;89.88;99330.84;4868146;29;20109;-78
2022/01/07 12:15:08;;;;;;;6.15;2.97;;;;;;;4.74;90.42;99334.56;4868384;29;20112;-78
2022/01/07 12:18:00;;;;;;;6.13;2.90;;;;;;;4.72;90.04;99341.75;4873223;29;20626;-79
2022/01/07 12:20:59;;;;;;;5.82;3.10;;;;;;;4.72;90.22;99341.75;4880930;29;20379;-79
2022/01/07 12:23:51;;;;;;;;;;;;;;;;;;;;;
2022/01/07 12:26:50;;;;;;;6.07;3.25;;;;;;;4.77;89.98;99330.84;4881191;29;20132;-79
2022/01/07 12:32:48;;;;;;;5.53;2.97;;;;;;;4.84;89.78;99331.22;4884012;29;20036;-78
2022/01/07 12:35:42;;;;;;;5.75;3.60;;;;;;;4.89;89.77;99318.47;4861202;29;20028;-79
2022/01/07 12:38:20;;;;;;;3.60;3.00;;;;;;;4.85;89.94;99309.06;4868895;29;20041;-79
2022/01/07 12:41:24;;;;;;;11.05;3.97;;;;;;;4.84;89.61;99310.88;4867654;29;20632;-78
2022/01/07 12:44:49;;;;;;;6.05;3.17;;;;;;;4.77;89.43;99320.25;4840440;29;20072;-78
2022/01/07 12:47:41;;;;;;;7.18;3.08;;;;;;;4.81;89.39;99310.25;4849336;29;20036;-78
2022/01/07 12:50:40;;;;;;;;;;;;;;;;;;;;;
2022/01/07 12:53:25;;;;;;;6.07;3.10;;;;;;;4.79;89.25;99304.25;4866172;29;20128;-77
2022/01/07 12:56:26;;;;;;;6.72;3.50;;;;;;;4.79;89.77;99306.91;4850329;29;20717;-79
2022/01/07 12:59:52;;;;;;;;;;;;;;;;;;;;;
2022/01/07 13:02:34;;;;;;;5.22;3.17;;;;;;;4.84;89.76;99302.09;4831086;29;20108;-78
2022/01/07 13:05:48;;;;;;;5.00;3.25;;;;;;;4.83;89.23;99305.69;4859044;29;20049;-79
2022/01/07 13:08:34;;;;;;;;;;;;;;;;;;;;;
2022/01/07 13:11:20;;;;;;;6.03;2.75;;;;;;;4.80;89.34;99295.34;4847843;29;20951;-79
2022/01/07 13:14:35;;;;;;;;;;;;;;;;;;;;;
2022/01/07 13:17:15;;;;;;;5.10;2.75;;;;;;;4.87;89.40;99283.31;4829814;29;20140;-78
2022/01/07 13:20:03;;;;;;;3.83;2.47;;;;;;;4.85;89.58;99271.97;4856470;29;20476;-78
2022/01/07 13:22:44;;;;;;;3.50;2.60;;;;;;;4.83;89.70;99273.91;4849934;29;20395;-78
2022/01/07 13:25:28;;;;;;;4.47;2.20;;;;;;;4.82;90.04;99275.72;4862819;29;20060;-78
2022/01/07 13:28:09;;;;;;;3.22;2.15;;;;;;;4.81;89.90;99281.13;4863093;29;20703;-78
2022/01/07 13:31:07;;;;;;;3.80;2.08;;;;;;;4.85;89.88;99277.28;4868686;29;20049;-78
2022/01/07 13:34:14;;;;;;;5.05;2.20;;;;;;;4.83;89.45;99290.66;4868491;29;20033;-78
2022/01/07 13:37:03;;;;;;;3.97;2.40;;;;;;;4.84;89.57;99281.72;4866510;29;20998;-78
2022/01/07 13:39:54;;;;;;;2.90;2.08;;;;;;;4.85;89.88;99285.22;4919365;24;20490;-79
2022/01/07 13:46:20;;;;;;;4.00;2.20;;;;;;;4.82;89.50;99293.41;4885420;29;20032;-78
2022/01/07 13:49:13;;;;;;;4.07;2.60;;;;;;;4.83;89.42;99289.81;4877147;29;20086;-78
2022/01/07 13:52:04;;;;;;;4.70;2.30;;;;;;;4.80;89.53;99290.88;4865301;29;20037;-79
2022/01/07 13:54:51;;;;;;;4.53;2.60;;;;;;;4.82;89.90;99285.47;4862839;29;20077;-78
2022/01/07 13:57:41;;;;;;;7.05;2.85;;;;;;;4.81;89.66;99297.03;4878989;29;20034;-78
2022/01/07 14:00:43;;;;;;;4.15;2.60;;;;;;;4.82;89.96;99282.81;4872253;29;20069;-78
2022/01/07 14:03:40;;;;;;;3.47;2.20;;;;;;;4.82;89.92;99281.00;4871760;29;21231;-78
2022/01/07 14:06:24;;;;;;;2.22;1.80;;;;;;;4.86;89.41;99278.97;4874369;29;20095;-78
2022/01/07 14:09:20;;;;;;;3.13;1.50;;;;;;;4.88;89.37;99296.44;4870777;29;20134;-78
2022/01/07 14:12:41;;;;;;;;;;;;;;;;;;;;;
2022/01/07 14:15:52;;;;;;;1.65;1.30;;;;;;;4.85;89.79;99282.56;4881376;29;20144;-79
2022/01/07 14:18:37;;;;;;;2.45;1.48;;;;;;;4.85;89.90;99288.72;4881752;29;20093;-79
2022/01/07 14:21:28;;;;;;;2.33;1.30;;;;;;;4.87;90.27;99286.78;4864863;29;20065;-78
2022/01/07 14:24:15;;;;;;;1.63;1.20;;;;;;;4.79;90.03;99293.66;4866161;29;20041;-79
2022/01/07 14:27:02;;;;;;;;;;;;;;;;;;;;;
2022/01/07 14:29:42;;;;;;;0.75;0.75;;;;;;;4.77;89.79;99284.97;4912851;23;20108;-78
2022/01/07 14:32:27;;;;;;;1.88;0.90;;;;;;;4.76;90.16;99273.53;4861237;29;20448;-78
2022/01/07 14:35:10;;;;;;;0.90;0.85;;;;;;;4.73;89.85;99263.19;4895582;29;20076;-78
2022/01/07 14:37:58;;;;;;;1.58;1.20;;;;;;;4.69;89.73;99261.72;4878655;29;20104;-79
2022/01/07 14:40:43;;;;;;;6.75;4.38;;;;;;;4.71;89.68;99281.81;4894906;29;20571;-78
2022/01/07 14:43:32;;;;;;;;;;;;;;;;;;;;;
2022/01/07 14:46:13;;;;;;;5.20;3.10;;;;;;;4.71;89.22;99295.06;4862573;29;20152;-78
2022/01/07 14:49:07;;;;;;;2.40;2.20;;;;;;;4.69;89.22;99285.53;4873807;29;20045;-79
2022/01/07 14:55:04;;;;;;;1.38;1.20;;;;;;;4.66;89.50;99291.06;4876616;29;20049;-78
2022/01/07 14:57:52;;;;;;;1.60;1.50;;;;;;;4.62;88.93;99294.91;4874571;29;20421;-78
2022/01/07 15:00:34;;;;;;;1.42;1.33;;;;;;;4.58;88.34;99296.09;4860942;29;20077;-78
2022/01/07 15:03:18;;;;;;;1.45;1.25;;;;;;;4.56;88.58;99288.28;4862243;29;20970;-78
2022/01/07 15:09:04;;;;;;;1.75;1.20;;;;;;;4.62;88.62;99271.94;4864314;29;20424;-78
2022/01/07 15:11:57;;;;;;;2.33;1.30;;;;;;;4.57;88.46;99263.50;4872552;29;20040;-79
2022/01/07 15:14:34;;;;;;;1.48;1.20;;;;;;;4.53;88.13;99261.19;4861960;29;20029;-78
2022/01/07 15:17:11;;;;;;;1.58;1.33;;;;;;;4.51;87.72;99261.31;4913173;24;20140;-78
2022/01/07 15:19:59;;;;;;;2.45;1.40;;;;;;;4.52;87.86;99265.66;4904627;29;20761;-78
2022/01/07 15:22:43;;;;;;;1.50;1.40;;;;;;;4.53;87.83;99274.44;4874401;29;20032;-77
2022/01/07 15:25:27;;;;;;;9.65;7.88;;;;;;;4.54;87.81;99270.84;4897379;29;20045;-78
2022/01/07 15:28:07;;;;;;;10.55;8.68;;;;;;;4.58;87.78;99266.97;4884045;29;20032;-78
2022/01/07 15:30:45;;;;;;;4.13;3.58;;;;;;;4.57;87.44;99271.44;4888316;29;20032;-78
2022/01/07 15:33:25;;;;;;;6.05;3.97;;;;;;;4.58;87.67;99282.88;4888388;29;20410;-79
2022/01/07 15:36:05;;;;;;;3.25;2.15;;;;;;;4.65;88.06;99287.56;4889083;29;20040;-79
2022/01/07 15:38:50;;;;;;;2.65;1.90;;;;;;;4.58;87.50;99282.88;4903496;29;20028;-78
2022/01/07 15:41:57;;;;;;;;;;;;;;;;;;;;;
2022/01/07 15:44:56;;;;;;;;;;;;;;;;;;;;;
2022/01/07 15:47:42;;;;;;;2.13;1.80;;;;;;;4.58;87.35;99285.53;4888004;29;20104;-78
2022/01/07 15:50:33;;;;;;;2.13;1.70;;;;;;;4.56;87.29;99280.34;4902767;29;20039;-78
2022/01/07 15:53:17;;;;;;;1.88;1.40;;;;;;;4.59;87.73;99284.56;4886980;29;20045;-78
2022/01/07 15:56:25;;;;;;;1.50;1.40;;;;;;;4.61;87.22;99295.88;4888751;29;20119;-78
2022/01/07 15:59:03;;;;;;;4.38;3.95;;;;;;;4.62;87.52;99292.25;4886948;29;20051;-78
2022/01/07 16:07:35;;;;;;;;;;;;;;;;;;;;;
2022/01/07 16:10:32;;;;;;;2.47;1.38;;;;;;;4.56;88.05;99309.47;4846150;29;20097;-78
2022/01/07 16:13:20;;;;;;;1.23;1.00;;;;;;;4.58;87.87;99304.91;4826899;29;20041;-78
2022/01/07 16:16:58;;;;;;;;;;;;;;;;;;;;;
2022/01/07 16:19:56;;;;;;;1.67;1.40;;;;;;;4.61;88.42;99302.00;4841633;29;20124;-79
2022/01/07 16:22:37;;;;;;;2.00;1.20;;;;;;;4.72;88.33;99312.63;4823915;29;20062;-78
2022/01/07 16:25:47;;;;;;;1.42;1.10;;;;;;;4.71;88.69;99318.88;4837595;29;20082;-79
2022/01/07 16:28:41;;;;;;;;;;;;;;;;;;;;;
2022/01/07 16:34:31;;;;;;;1.55;1.10;;;;;;;4.64;88.84;99330.06;4814864;29;20049;-79
2022/01/07 16:37:44;;;;;;;1.10;1.00;;;;;;;4.56;88.86;99329.81;4828683;29;20504;-79
2022/01/07 16:40:23;;;;;;;2.58;1.35;;;;;;;4.39;89.04;99307.25;4841186;29;20296;-79
2022/01/07 16:43:17;;;;;;;1.85;1.73;;;;;;;4.34;88.92;99298.81;4843242;29;20147;-79
2022/01/07 16:48:52;;;;;;;1.40;1.30;;;;;;;4.33;88.99;99291.84;4848588;29;20041;-79
2022/01/07 16:51:37;;;;;;;2.28;1.92;;;;;;;4.27;89.11;99290.50;4850894;29;20057;-79
2022/01/07 16:57:04;;;;;;;1.90;1.70;;;;;;;4.11;89.24;99282.81;4868075;24;20664;-79
2022/01/07 16:59:50;;;;;;;3.20;2.90;;;;;;;4.18;89.61;99292.94;4839608;29;20044;-79
2022/01/07 17:02:50;;;;;;;2.60;1.95;;;;;;;4.16;89.59;99293.06;4842195;29;20065;-79
2022/01/07 17:05:40;;;;;;;3.05;2.70;;;;;;;4.12;89.52;99294.25;4855502;29;20578;-79
2022/01/07 17:08:36;;;;;;;2.80;2.50;;;;;;;4.14;89.50;99292.34;4848208;29;20962;-82
2022/01/07 17:11:40;;;;;;;2.60;2.25;;;;;;;4.05;89.52;99303.59;4834472;29;20917;-79
2022/01/07 17:14:18;;;;;;;2.95;2.28;;;;;;;4.04;89.61;99307.22;4836308;29;20037;-78
2022/01/07 17:17:20;;;;;;;2.42;2.22;;;;;;;4.11;89.88;99300.50;4840265;29;20038;-79
2022/01/07 17:20:21;;;;;;;2.83;2.00;;;;;;;4.15;89.51;99294.03;4843394;29;20034;-78
2022/01/07 17:23:26;;;;;;;2.30;1.90;;;;;;;4.15;89.49;99291.38;4843482;29;20113;-78
2022/01/07 17:26:05;;;;;;;2.90;2.20;;;;;;;4.15;89.51;99291.38;4841570;29;20045;-77
2022/01/07 17:28:49;;;;;;;2.30;2.10;;;;;;;4.15;89.84;99287.88;4837435;29;20511;-78
2022/01/07 17:31:27;;;;;;;3.42;2.55;;;;;;;4.15;89.81;99283.44;4824745;29;20496;-79
2022/01/07 17:34:15;;;;;;;2.83;2.08;;;;;;;4.15;89.48;99296.66;4839061;29;20072;-79
2022/01/07 17:36:53;;;;;;;2.40;2.20;;;;;;;4.20;89.26;99288.38;4835551;29;20479;-77
2022/01/07 17:39:37;;;;;;;3.90;2.40;;;;;;;4.20;89.40;99269.88;4832849;29;21383;-77
2022/01/07 17:42:22;;;;;;;3.83;2.30;;;;;;;4.19;89.38;99261.09;4874892;24;20053;-78
2022/01/07 17:45:05;;;;;;;3.33;1.98;;;;;;;4.05;89.20;99269.22;4850766;29;20037;-78
2022/01/07 17:47:52;;;;;;;;;;;;;;;;;;;;;
2022/01/07 17:53:37;;;;;;;2.63;1.90;;;;;;;3.98;89.08;99260.91;4852084;29;20129;-79
2022/01/07 17:56:17;;;;;;;3.97;2.08;;;;;;;4.02;89.15;99269.44;4833515;29;20109;-78
2022/01/07 17:59:16;;;;;;;2.70;1.60;;;;;;;4.02;89.07;99266.81;4832096;29;20080;-78
2022/01/07 18:01:57;;;;;;;2.20;1.80;;;;;;;4.01;89.05;99263.31;4849859;29;20057;-78
2022/01/07 18:04:36;;;;;;;2.42;1.60;;;;;;;4.04;89.04;99263.09;4848833;29;20078;-77
2022/01/07 18:07:07;;;;;;;;;;;;;;;4.06;89.00;99257.69;4880161;29;20795;-78
2022/01/07 18:09:54;;;;;;;2.15;1.70;;;;;;;4.02;88.88;99264.16;4852999;29;19912;-78
2022/01/07 18:12:28;;;;;;;3.25;1.65;;;;;;;4.02;88.56;99261.50;4859357;29;20189;-78